Time;durP1;ratioP1;P1;durP2;ratioP2;P2;SDS_P1;SDS_P2;PMS_P1;PMS_P2;Temp;Humidity;BMP_temperature;BMP_pressure;BME280_temperature;BME280_humidity;BME280_pressure;Samples;Min_cycle;Max_cycle;Signal;HPM_P1;HPM_P2
2021/12/25 00:00:20;;;;;;;3.87;1.45;;;;;;;-5.47;85.27;99993.13;1631452;87;21116;-77
2021/12/25 00:02:46;;;;;;;4.87;1.50;;;;;;;-5.50;85.21;99991.76;1624175;86;20957;-77
2021/12/25 00:05:14;;;;;;;;;;;;;;;-5.51;85.26;99998.86;1630379;87;20953;-77
2021/12/25 00:07:40;;;;;;;4.78;1.42;;;;;;;-5.56;85.20;99997.82;1638534;87;20108;-77
2021/12/25 00:10:07;;;;;;;;;;;;;;;-5.59;85.18;100006.52;1632446;87;20958;-77
2021/12/25 00:12:34;;;;;;;6.40;1.42;;;;;;;-5.65;85.11;100008.80;1611813;88;20100;-77
2021/12/25 00:15:00;;;;;;;;;;;;;;;-5.69;85.11;100002.78;1627514;87;20954;-77
2021/12/25 00:17:27;;;;;;;3.65;1.17;;;;;;;-5.71;85.13;100001.00;1628469;87;20110;-77
2021/12/25 00:19:54;;;;;;;2.15;1.00;;;;;;;-5.74;85.14;100004.30;1628555;88;20907;-76
2021/12/25 00:22:21;;;;;;;4.95;1.60;;;;;;;-5.76;85.17;100008.81;1628585;87;20882;-76
2021/12/25 00:24:48;;;;;;;3.98;1.15;;;;;;;-5.75;85.28;100013.05;1629813;87;20942;-76
2021/12/25 00:30:10;;;;;;;6.42;1.82;;;;;;;-5.79;85.15;100013.33;1646958;87;20905;-76
2021/12/25 00:34:49;;;;;;;3.27;1.45;;;;;;;-5.83;85.14;100020.70;1631460;85;20905;-76
2021/12/25 00:37:16;;;;;;;5.08;1.40;;;;;;;-5.85;85.14;100022.30;1628246;87;21363;-76
2021/12/25 00:39:45;;;;;;;3.33;0.95;;;;;;;-5.86;85.16;100026.47;1628559;87;20970;-76
2021/12/25 00:42:13;;;;;;;3.30;1.32;;;;;;;-5.89;85.07;100035.59;1628513;87;20916;-76
2021/12/25 00:44:41;;;;;;;6.25;2.05;;;;;;;-5.90;85.15;100040.16;1626794;88;21418;-76
2021/12/25 00:47:08;;;;;;;6.80;1.65;;;;;;;-5.91;85.16;100047.25;1630006;87;20962;-76
2021/12/25 00:49:34;;;;;;;6.85;1.85;;;;;;;-5.93;85.15;100050.97;1628531;87;20962;-76
2021/12/25 00:52:00;;;;;;;8.08;1.72;;;;;;;-5.96;85.07;100045.80;1622869;88;20928;-76
2021/12/25 00:54:26;;;;;;;6.28;1.47;;;;;;;-5.96;85.11;100049.98;1625891;87;21045;-77
2021/12/25 00:56:52;;;;;;;;;;;;;;;-5.97;85.14;100056.67;1631231;87;21008;-77
2021/12/25 00:59:18;;;;;;;3.10;1.23;;;;;;;-5.98;85.15;100065.41;1628542;87;20588;-77
2021/12/25 01:01:45;;;;;;;6.87;2.00;;;;;;;-6.01;85.10;100064.89;1628610;88;22345;-77
2021/12/25 01:04:11;;;;;;;4.95;1.37;;;;;;;-6.03;85.13;100067.74;1641056;86;20926;-76
2021/12/25 01:06:39;;;;;;;4.17;1.27;;;;;;;-6.04;85.11;100069.40;1631463;86;20962;-77
2021/12/25 01:09:05;;;;;;;3.75;1.30;;;;;;;-6.07;85.03;100073.05;1632612;87;21434;-77
2021/12/25 01:11:34;;;;;;;2.47;1.20;;;;;;;-6.11;85.02;100078.75;1632381;86;20977;-76
2021/12/25 01:14:10;;;;;;;2.90;1.20;;;;;;;-6.16;84.95;100085.24;1633549;86;21089;-76
2021/12/25 01:17:03;;;;;;;2.80;1.30;;;;;;;-6.20;84.97;100085.91;1635757;86;21540;-76
2021/12/25 01:19:32;;;;;;;3.87;1.35;;;;;;;-6.21;85.03;100088.36;1633603;87;21025;-76
2021/12/25 01:35:06;;;;;;;3.33;1.50;;;;;;;-6.33;84.97;100104.22;1630576;86;20973;-76
2021/12/25 01:40:10;;;;;;;5.15;1.47;;;;;;;-6.37;84.99;100117.92;1626282;87;20948;-76
2021/12/25 01:50:12;;;;;;;7.53;2.02;;;;;;;-6.45;84.92;100117.98;1638372;86;20961;-76
2021/12/25 01:52:38;;;;;;;2.72;1.37;;;;;;;-6.48;84.89;100124.54;1632743;86;20929;-76
2021/12/25 01:55:10;;;;;;;3.52;1.90;;;;;;;-6.51;84.82;100133.20;1632883;86;20922;-76
2021/12/25 01:57:36;;;;;;;3.47;1.57;;;;;;;-6.53;84.87;100141.08;1620769;87;20965;-76
2021/12/25 02:00:08;;;;;;;5.83;1.70;;;;;;;-6.57;84.82;100140.47;1629091;86;20925;-76
2021/12/25 02:02:34;;;;;;;6.47;2.40;;;;;;;-6.59;84.86;100150.86;1636551;86;20946;-76
2021/12/25 02:05:00;;;;;;;6.47;1.87;;;;;;;-6.63;84.80;100152.37;1630629;87;26122;-77
2021/12/25 02:07:26;;;;;;;;;;;;;;;-6.64;84.80;100158.59;1635048;86;20895;-77
2021/12/25 02:09:52;;;;;;;5.90;1.60;;;;;;;-6.68;84.75;100157.59;1631515;87;20170;-77
2021/12/25 02:12:18;;;;;;;6.78;1.52;;;;;;;-6.72;84.74;100163.27;1630301;87;20944;-77
2021/12/25 02:14:46;;;;;;;5.97;1.75;;;;;;;-6.74;84.84;100170.74;1631449;87;26737;-77
2021/12/25 02:17:23;;;;;;;4.62;1.62;;;;;;;-6.78;84.81;100168.91;1633291;86;365028;-78
2021/12/25 02:19:50;;;;;;;2.90;1.47;;;;;;;-6.81;84.72;100172.55;1653085;85;20931;-78
2021/12/25 02:22:11;;;;;;;3.25;1.50;;;;;;;-6.85;84.76;100174.45;1640720;86;21628;-78
2021/12/25 02:24:38;;;;;;;4.40;2.37;;;;;;;-6.88;84.72;100180.98;1650083;85;21508;-78
2021/12/25 02:27:05;;;;;;;4.30;1.60;;;;;;;-6.92;84.67;100186.27;1648823;85;21590;-78
2021/12/25 02:29:32;;;;;;;2.90;1.22;;;;;;;-6.96;84.62;100194.84;1655396;86;20963;-78
2021/12/25 02:32:00;;;;;;;3.80;1.42;;;;;;;-7.03;84.61;100199.97;1661004;85;20895;-78
2021/12/25 02:34:26;;;;;;;4.10;1.92;;;;;;;-7.10;84.56;100206.36;1651829;86;20898;-78
2021/12/25 02:36:52;;;;;;;3.83;1.50;;;;;;;-7.17;84.50;100200.58;1651330;85;22117;-78
2021/12/25 02:39:19;;;;;;;4.80;1.87;;;;;;;-7.24;84.44;100202.72;1654546;85;26344;-78
2021/12/25 02:41:45;;;;;;;3.42;1.42;;;;;;;-7.31;84.47;100209.52;1641204;85;20955;-78
2021/12/25 02:44:11;;;;;;;8.88;2.10;;;;;;;-7.38;84.46;100211.73;1653469;85;21747;-78
2021/12/25 02:46:37;;;;;;;3.45;1.57;;;;;;;-7.43;84.46;100213.55;1648139;87;21572;-78
2021/12/25 02:49:03;;;;;;;5.20;1.77;;;;;;;-7.51;84.42;100216.08;1649373;85;21045;-78
2021/12/25 02:51:29;;;;;;;3.08;1.70;;;;;;;-7.56;84.45;100220.88;1635191;86;21098;-78
2021/12/25 02:53:55;;;;;;;7.12;1.60;;;;;;;-7.63;84.39;100223.86;1637837;86;20999;-78
2021/12/25 02:56:21;;;;;;;;;;;;;;;-7.71;84.36;100228.50;1657703;85;20949;-78
2021/12/25 02:58:47;;;;;;;3.05;1.60;;;;;;;-7.78;84.32;100230.23;1660318;85;20247;-78
2021/12/25 03:01:18;;;;;;;2.08;1.00;;;;;;;-7.88;84.20;100238.50;1653089;86;21042;-78
2021/12/25 03:03:45;;;;;;;2.58;1.47;;;;;;;-7.99;84.18;100239.59;1653255;86;21513;-78
2021/12/25 03:06:12;;;;;;;2.45;1.05;;;;;;;-8.09;84.17;100240.37;1651844;85;21054;-78
2021/12/25 03:08:40;;;;;;;3.37;1.55;;;;;;;-8.18;84.16;100244.04;1651658;85;21070;-78
2021/12/25 03:11:07;;;;;;;8.73;2.05;;;;;;;-8.31;84.05;100246.69;1652163;85;20945;-78
2021/12/25 03:13:43;;;;;;;5.75;2.33;;;;;;;-8.40;84.09;100261.78;1648228;87;21663;-78
2021/12/25 03:16:08;;;;;;;4.28;2.10;;;;;;;-8.47;84.13;100262.23;1650979;85;21153;-78
2021/12/25 03:18:44;;;;;;;5.70;2.12;;;;;;;-8.53;84.14;100258.53;1653635;85;21569;-78
2021/12/25 03:21:07;;;;;;;6.83;2.22;;;;;;;-8.62;84.08;100258.89;1651273;85;21537;-78
2021/12/25 03:23:36;;;;;;;7.17;2.60;;;;;;;-8.72;84.02;100256.27;1652339;85;21485;-78
2021/12/25 03:26:05;;;;;;;8.25;2.80;;;;;;;-8.78;84.05;100262.59;1654254;85;21503;-78
2021/12/25 03:28:36;;;;;;;6.65;2.30;;;;;;;-8.85;83.99;100271.44;1653755;86;20963;-78
2021/12/25 03:31:06;;;;;;;10.38;3.08;;;;;;;-8.90;84.08;100270.33;1653477;85;20947;-78
2021/12/25 03:33:33;;;;;;;8.03;2.87;;;;;;;-8.95;84.03;100272.96;1622029;87;20966;-78
2021/12/25 03:36:01;;;;;;;8.10;3.52;;;;;;;-9.01;84.03;100277.63;1646741;85;20934;-77
2021/12/25 03:38:28;;;;;;;14.20;3.60;;;;;;;-9.07;84.04;100278.14;1657664;85;21549;-77
2021/12/25 03:40:55;;;;;;;10.13;3.77;;;;;;;-9.12;84.02;100287.43;1628456;87;20940;-77
2021/12/25 03:43:22;;;;;;;10.30;4.97;;;;;;;-9.17;84.03;100283.80;1628366;88;21520;-78
2021/12/25 03:45:49;;;;;;;13.20;5.58;;;;;;;-9.23;83.99;100291.83;1648906;85;20939;-78
2021/12/25 03:57:37;;;;;;;15.55;5.80;;;;;;;-9.43;83.92;100303.61;1658088;85;21566;-78
2021/12/25 03:58:52;;;;;;;15.32;5.60;;;;;;;-9.55;83.90;100308.77;1628460;87;20946;-78
2021/12/25 04:01:45;;;;;;;13.45;5.20;;;;;;;-9.57;83.93;100314.06;1619983;85;20939;-78
2021/12/25 04:04:06;;;;;;;15.20;6.10;;;;;;;-9.60;83.94;100316.77;1647867;86;20966;-78
2021/12/25 04:06:28;;;;;;;13.35;4.90;;;;;;;-9.62;84.01;100319.19;1647347;86;20995;-78
2021/12/25 04:08:54;;;;;;;;;;;;;;;-9.64;83.95;100323.23;1626908;87;20924;-78
2021/12/25 04:11:29;;;;;;;13.70;5.05;;;;;;;-9.67;83.89;100328.05;1619146;88;20114;-78
2021/12/25 04:13:54;;;;;;;7.00;4.25;;;;;;;-9.70;83.95;100331.23;1621600;87;20917;-78
2021/12/25 04:16:20;;;;;;;;;;;;;;;-9.72;83.95;100333.17;1631895;87;20951;-78
2021/12/25 04:18:46;;;;;;;18.20;5.70;;;;;;;-9.75;83.88;100330.48;1619848;88;20731;-78
2021/12/25 04:21:11;;;;;;;;;;;;;;;-9.80;83.84;100335.21;1622038;87;21013;-78
2021/12/25 04:23:40;;;;;;;19.67;4.87;;;;;;;-9.84;83.83;100334.55;1618315;88;20188;-78
2021/12/25 04:26:05;;;;;;;17.70;4.95;;;;;;;-9.89;83.83;100339.69;1620876;88;21119;-78
2021/12/25 04:28:44;;;;;;;;;;;;;;;-9.91;83.82;100338.73;1626135;87;20939;-78
2021/12/25 05:03:43;;;;;;;11.90;4.53;;;;;;;-10.14;83.80;100382.33;1646008;85;20896;-77
2021/12/25 05:06:03;;;;;;;16.97;4.35;;;;;;;-10.20;83.69;100383.62;1637824;85;20944;-77
2021/12/25 05:08:29;;;;;;;;;;;;;;;-10.28;83.58;100383.52;1620819;87;20962;-77
2021/12/25 05:10:57;;;;;;;12.70;4.50;;;;;;;-10.34;83.57;100382.75;1599089;88;25570;-78
2021/12/25 05:13:23;;;;;;;12.68;4.67;;;;;;;-10.41;83.46;100384.41;1594537;89;20955;-78
2021/12/25 05:15:49;;;;;;;10.45;4.35;;;;;;;-10.45;83.58;100385.86;1597771;88;20991;-78
2021/12/25 05:18:15;;;;;;;;;;;;;;;-10.46;83.62;100386.63;1630534;87;20956;-78
2021/12/25 05:20:42;;;;;;;12.58;3.75;;;;;;;-10.49;83.59;100393.06;1620933;88;20104;-78
2021/12/25 05:23:08;;;;;;;15.10;4.13;;;;;;;-10.49;83.68;100391.42;1616442;87;20976;-78
2021/12/25 05:25:35;;;;;;;13.28;4.20;;;;;;;-10.51;83.61;100392.96;1632365;87;20985;-77
2021/12/25 05:28:02;;;;;;;22.85;5.22;;;;;;;-10.56;83.55;100395.55;1610117;88;21566;-78
2021/12/25 05:30:30;;;;;;;21.57;5.90;;;;;;;-10.58;83.61;100399.58;1615987;88;20924;-78
2021/12/25 05:32:57;;;;;;;18.95;5.97;;;;;;;-10.58;83.62;100397.08;1610736;88;20936;-78
2021/12/25 05:35:23;;;;;;;16.55;4.80;;;;;;;-10.56;83.71;100398.43;1623426;87;20913;-78
2021/12/25 05:37:51;;;;;;;;;;;;;;;-10.53;83.80;100405.73;1626760;88;20931;-77
2021/12/25 05:40:17;;;;;;;14.23;4.12;;;;;;;-10.51;83.79;100412.08;1638133;85;20167;-77
2021/12/25 05:42:42;;;;;;;;;;;;;;;-10.50;83.75;100417.56;1620133;87;20991;-77
2021/12/25 05:45:10;;;;;;;15.13;4.27;;;;;;;-10.53;83.67;100419.48;1606954;88;20241;-78
2021/12/25 05:47:36;;;;;;;12.93;5.08;;;;;;;-10.53;83.69;100419.48;1614426;88;20961;-77
2021/12/25 05:50:02;;;;;;;;;;;;;;;-10.53;83.70;100416.11;1611842;89;20881;-77
2021/12/25 05:52:28;;;;;;;13.40;4.83;;;;;;;-10.54;83.73;100420.63;1609361;87;20102;-77
2021/12/25 05:54:54;;;;;;;;;;;;;;;-10.53;83.74;100426.11;1622421;87;20862;-77
2021/12/25 05:57:20;;;;;;;13.50;4.63;;;;;;;-10.53;83.78;100424.48;1594479;90;20188;-77
2021/12/25 05:59:46;;;;;;;;;;;;;;;-10.54;83.69;100429.38;1597449;87;20947;-77
2021/12/25 06:02:12;;;;;;;21.83;6.50;;;;;;;-10.59;83.58;100427.83;1607634;87;20209;-77
2021/12/25 06:04:38;;;;;;;18.10;6.23;;;;;;;-10.64;83.45;100434.54;1614492;87;20988;-78
2021/12/25 06:07:04;;;;;;;15.93;6.13;;;;;;;-10.72;83.36;100439.04;1606997;88;20999;-78
2021/12/25 06:09:31;;;;;;;10.65;5.00;;;;;;;-10.78;83.09;100434.89;1603888;88;21063;-78
2021/12/25 06:11:57;;;;;;;15.80;5.43;;;;;;;-10.81;83.46;100443.05;1604339;89;21107;-78
2021/12/25 06:14:23;;;;;;;12.25;5.35;;;;;;;-10.83;83.51;100439.58;1614653;87;21086;-78
2021/12/25 06:16:50;;;;;;;;;;;;;;;-10.88;83.37;100437.55;1613794;87;21082;-78
2021/12/25 06:19:17;;;;;;;14.03;5.93;;;;;;;-10.93;83.37;100430.17;1611174;89;20106;-77
2021/12/25 06:21:44;;;;;;;21.40;7.87;;;;;;;-10.93;83.42;100433.91;1617052;87;20964;-77
2021/12/25 06:24:10;;;;;;;18.87;7.17;;;;;;;-10.94;83.46;100435.55;1610158;88;20952;-76
2021/12/25 06:26:38;;;;;;;17.93;5.73;;;;;;;-10.91;83.56;100434.47;1615935;87;20921;-76
2021/12/25 06:29:06;;;;;;;14.87;6.37;;;;;;;-10.90;83.56;100437.83;1610695;88;20980;-75
2021/12/25 06:31:32;;;;;;;12.50;6.10;;;;;;;-10.88;83.54;100442.16;1631344;87;21540;-75
2021/12/25 06:33:58;;;;;;;25.73;8.17;;;;;;;-10.89;83.51;100440.81;1613910;87;20936;-75
2021/12/25 06:36:25;;;;;;;32.20;9.73;;;;;;;-10.89;83.45;100444.55;1626088;87;20920;-75
2021/12/25 06:38:51;;;;;;;40.85;10.13;;;;;;;-10.94;83.35;100448.41;1609006;88;20955;-75
2021/12/25 06:41:17;;;;;;;;;;;;;;;-10.96;83.33;100449.56;1627804;88;20991;-75
2021/12/25 06:43:43;;;;;;;21.53;8.07;;;;;;;-11.00;83.22;100455.50;1614192;88;20162;-75
2021/12/25 06:46:09;;;;;;;;;;;;;;;-11.05;83.17;100462.30;1617328;87;20883;-75
2021/12/25 06:48:35;;;;;;;56.23;13.10;;;;;;;-11.06;83.22;100459.31;1613898;87;28095;-75
2021/12/25 06:51:01;;;;;;;45.63;11.80;;;;;;;-11.07;83.26;100455.47;1609759;87;21003;-75
2021/12/25 06:53:27;;;;;;;;;;;;;;;-11.06;83.34;100462.19;1611442;87;20956;-76
2021/12/25 06:55:52;;;;;;;29.10;9.37;;;;;;;-11.04;83.39;100458.17;1610991;87;20191;-75
2021/12/25 06:58:18;;;;;;;17.33;6.30;;;;;;;-11.04;83.38;100457.78;1610802;87;22515;-75
2021/12/25 07:00:44;;;;;;;17.30;6.42;;;;;;;-11.05;83.30;100460.18;1610009;87;20925;-75
2021/12/25 07:03:10;;;;;;;;;;;;;;;-11.09;83.17;100460.73;1619562;87;20908;-75
2021/12/25 07:05:36;;;;;;;16.50;5.30;;;;;;;-11.14;83.06;100463.30;1626110;87;20167;-76
2021/12/25 07:08:03;;;;;;;;;;;;;;;-11.19;83.02;100465.49;1621871;87;20968;-76
2021/12/25 07:10:29;;;;;;;20.30;7.03;;;;;;;-11.23;83.06;100464.80;1619848;88;20138;-76
2021/12/25 07:12:55;;;;;;;14.53;6.73;;;;;;;-11.22;83.15;100466.91;1623027;88;20972;-76
2021/12/25 07:15:21;;;;;;;18.03;6.37;;;;;;;-11.26;83.10;100467.09;1621895;87;21648;-76
2021/12/25 07:17:47;;;;;;;;;;;;;;;-11.27;83.19;100465.36;1620809;88;20994;-76
2021/12/25 07:20:13;;;;;;;17.77;6.97;;;;;;;-11.27;83.17;100466.60;1628330;86;20166;-76
2021/12/25 07:22:39;;;;;;;17.40;8.50;;;;;;;-11.26;83.25;100467.09;1607891;87;20979;-76
2021/12/25 07:25:08;;;;;;;19.93;7.57;;;;;;;-11.24;83.30;100468.44;1621448;88;25531;-76
2021/12/25 07:27:34;;;;;;;22.10;7.63;;;;;;;-11.21;83.36;100469.89;1638938;87;20974;-76
2021/12/25 07:30:05;;;;;;;25.13;9.80;;;;;;;-11.22;83.23;100470.66;1637104;86;20944;-76
2021/12/25 07:32:29;;;;;;;17.87;7.80;;;;;;;-11.18;83.41;100480.95;1642479;86;20892;-76
2021/12/25 07:34:56;;;;;;;18.87;7.40;;;;;;;-11.16;83.34;100484.80;1644469;85;25919;-76
2021/12/25 07:37:22;;;;;;;17.50;7.10;;;;;;;-11.14;83.32;100487.02;1651009;85;21055;-75
2021/12/25 07:39:48;;;;;;;22.32;7.95;;;;;;;-11.13;83.28;100493.36;1662093;85;21566;-75
2021/12/25 07:42:14;;;;;;;23.40;8.60;;;;;;;-11.11;83.31;100489.34;1641276;85;20962;-75
2021/12/25 07:44:40;;;;;;;18.93;7.80;;;;;;;-11.08;83.35;100488.30;1650423;85;21051;-75
2021/12/25 07:47:10;;;;;;;19.83;6.73;;;;;;;-11.05;83.50;100472.66;1648496;85;20923;-75
2021/12/25 07:49:35;;;;;;;17.47;7.37;;;;;;;-11.05;83.50;100472.66;1629723;87;21112;-75
2021/12/25 07:52:00;;;;;;;;;;;;;;;-10.91;83.44;100501.88;1647062;86;21141;-75
2021/12/25 07:54:26;;;;;;;21.67;6.93;;;;;;;-10.85;83.44;100502.29;1632283;86;20212;-76
2021/12/25 07:56:54;;;;;;;15.40;6.23;;;;;;;-10.78;83.50;100501.94;1628531;87;21576;-76
2021/12/25 07:59:20;;;;;;;18.25;6.47;;;;;;;-10.68;83.55;100498.80;1627019;85;20969;-76
2021/12/25 08:01:46;;;;;;;18.03;7.10;;;;;;;-10.64;83.57;100497.86;1645534;85;29059;-76
2021/12/25 08:04:12;;;;;;;17.13;7.03;;;;;;;-10.56;83.57;100499.23;1633043;86;20996;-76
2021/12/25 08:06:39;;;;;;;22.65;8.05;;;;;;;-10.47;83.67;100502.33;1663950;85;21013;-76
2021/12/25 08:09:06;;;;;;;19.30;8.18;;;;;;;-10.33;83.77;100504.83;1650930;85;21106;-76
2021/12/25 08:11:32;;;;;;;15.38;7.22;;;;;;;-10.24;83.69;100502.92;1646478;85;21009;-76
2021/12/25 08:13:58;;;;;;;16.40;7.42;;;;;;;-10.17;83.67;100506.27;1648257;85;21062;-76
2021/12/25 08:16:24;;;;;;;18.77;7.87;;;;;;;-10.12;83.64;100504.55;1653252;86;21569;-76
2021/12/25 08:18:50;;;;;;;20.57;8.03;;;;;;;-10.04;83.71;100507.53;1653204;86;21042;-76
2021/12/25 08:21:16;;;;;;;19.23;7.23;;;;;;;-10.04;83.71;100507.53;1651985;85;20986;-75
2021/12/25 08:23:43;;;;;;;25.02;8.60;;;;;;;-9.98;83.56;100508.31;1653173;86;21074;-75
2021/12/25 08:26:09;;;;;;;25.20;9.13;;;;;;;-9.93;83.65;100509.08;1653413;85;21086;-76
2021/12/25 08:28:35;;;;;;;;;;;;;;;-9.88;83.57;100504.38;1659402;85;21074;-76
2021/12/25 08:31:01;;;;;;;29.63;9.70;;;;;;;-9.82;83.59;100513.09;1648370;86;20821;-76
2021/12/25 08:33:28;;;;;;;28.90;11.25;;;;;;;-9.77;83.65;100516.75;1652573;86;20963;-77
2021/12/25 08:35:54;;;;;;;28.00;12.03;;;;;;;-9.67;83.78;100518.58;1654126;85;20927;-75
2021/12/25 08:38:21;;;;;;;37.23;14.00;;;;;;;-9.60;83.79;100518.20;1655259;86;20903;-75
2021/12/25 08:40:47;;;;;;;29.85;13.72;;;;;;;-9.57;83.78;100521.75;1655304;85;20919;-75
2021/12/25 08:43:16;;;;;;;34.03;14.87;;;;;;;-9.47;83.92;100522.80;1654155;86;20920;-75
2021/12/25 08:45:46;;;;;;;34.67;14.28;;;;;;;-9.38;84.00;100532.13;1656023;85;20931;-75
2021/12/25 08:48:21;;;;;;;34.33;14.78;;;;;;;-9.30;84.02;100536.71;1653478;85;20923;-75
2021/12/25 08:50:52;;;;;;;33.45;14.50;;;;;;;-9.24;83.95;100538.34;1652545;86;20888;-75
2021/12/25 08:53:20;;;;;;;44.15;17.60;;;;;;;-9.18;83.96;100539.97;1655281;85;21530;-76
2021/12/25 08:55:48;;;;;;;44.98;19.17;;;;;;;-9.13;83.97;100546.13;1655139;86;21574;-76
2021/12/25 08:58:15;;;;;;;42.45;18.20;;;;;;;-9.08;83.97;100551.02;1655144;86;20931;-76
2021/12/25 09:00:41;;;;;;;52.35;20.82;;;;;;;-9.02;84.04;100546.00;1655829;85;20895;-76
2021/12/25 09:03:07;;;;;;;;;;;;;;;-8.96;84.06;100553.41;1656304;85;20993;-76
2021/12/25 09:05:33;;;;;;;;;;;;;;;-8.93;83.99;100554.45;1661325;85;20732;-76
2021/12/25 09:08:01;;;;;;;62.30;21.73;;;;;;;-8.89;83.95;100551.36;1671063;85;20107;-76
2021/12/25 09:10:28;;;;;;;54.00;19.85;;;;;;;-8.86;83.94;100553.19;1670832;85;20941;-76
2021/12/25 09:12:56;;;;;;;48.98;19.25;;;;;;;-8.81;84.06;100561.42;1616637;87;20935;-76
2021/12/25 09:15:22;;;;;;;38.25;16.37;;;;;;;-8.73;84.16;100555.62;1619725;88;20984;-76
2021/12/25 09:17:48;;;;;;;;;;;;;;;-8.64;84.22;100558.67;1580988;87;21039;-76
2021/12/25 09:20:17;;;;;;;19.60;8.40;;;;;;;-8.55;84.33;100562.98;1653409;85;20748;-76
2021/12/25 09:22:44;;;;;;;24.50;10.98;;;;;;;-8.43;84.45;100563.70;1647530;87;20891;-76
2021/12/25 09:25:10;;;;;;;27.15;11.93;;;;;;;-8.32;84.50;100565.55;1647431;85;20966;-76
2021/12/25 09:27:36;;;;;;;22.32;9.93;;;;;;;-8.20;84.54;100567.48;1643940;85;21559;-76
2021/12/25 09:30:04;;;;;;;22.42;9.03;;;;;;;-8.11;84.49;100565.50;1613489;88;21054;-76
2021/12/25 09:32:30;;;;;;;22.10;8.85;;;;;;;-8.02;84.57;100567.28;1650246;85;21343;-76
2021/12/25 09:35:00;;;;;;;20.43;8.35;;;;;;;-7.86;84.70;100573.17;1645853;85;20997;-76
2021/12/25 09:37:24;;;;;;;19.35;8.40;;;;;;;-7.74;84.75;100576.34;1642129;85;21002;-76
2021/12/25 09:39:50;;;;;;;23.98;8.05;;;;;;;-7.61;84.77;100571.61;1645758;87;20918;-76
2021/12/25 09:42:16;;;;;;;;;;;;;;;-7.48;84.86;100569.00;1647115;86;20919;-76
2021/12/25 09:44:42;;;;;;;13.05;7.12;;;;;;;-7.33;84.91;100571.48;1643848;85;20179;-76
2021/12/25 09:47:08;;;;;;;21.25;8.15;;;;;;;-7.20;84.92;100577.22;1623988;87;21073;-77
2021/12/25 09:49:34;;;;;;;20.88;8.10;;;;;;;-7.08;84.91;100580.79;1644513;87;21085;-78
2021/12/25 09:52:00;;;;;;;16.00;6.70;;;;;;;-6.95;84.95;100568.09;1644687;87;21014;-78
2021/12/25 09:54:28;;;;;;;16.62;6.55;;;;;;;-6.82;84.99;100574.24;1626154;85;21026;-78
2021/12/25 09:56:56;;;;;;;16.48;6.25;;;;;;;-6.70;85.03;100568.56;1645491;87;20892;-78
2021/12/25 09:59:22;;;;;;;12.33;5.53;;;;;;;-6.58;84.99;100565.82;1646531;86;20955;-78
2021/12/25 10:01:53;;;;;;;13.32;5.15;;;;;;;-6.47;84.97;100555.05;1626306;85;20902;-78
2021/12/25 10:04:41;;;;;;;14.13;6.55;;;;;;;-6.36;84.98;100566.13;1644922;85;20935;-78
2021/12/25 10:07:29;;;;;;;12.33;6.50;;;;;;;-6.26;84.94;100566.20;1632287;86;21496;-78
2021/12/25 10:10:17;;;;;;;14.18;5.75;;;;;;;-6.16;84.92;100567.50;1646220;86;20923;-78
2021/12/25 10:12:46;;;;;;;17.83;7.73;;;;;;;-6.05;84.99;100566.37;1636714;86;393341;-78
2021/12/25 10:15:19;;;;;;;36.77;12.05;;;;;;;-5.95;84.96;100571.47;1595538;88;21181;-78
2021/12/25 10:17:54;;;;;;;44.05;14.40;;;;;;;-5.88;84.93;100566.78;1616252;87;20941;-79
2021/12/25 10:20:27;;;;;;;29.52;10.35;;;;;;;-5.81;84.92;100560.39;1620453;87;20963;-76
2021/12/25 10:23:14;;;;;;;29.40;9.80;;;;;;;-5.75;84.87;100556.91;1605398;88;20988;-76
2021/12/25 10:25:53;;;;;;;33.23;12.55;;;;;;;-5.68;84.92;100564.80;1619353;87;21532;-76
2021/12/25 10:28:33;;;;;;;38.40;12.25;;;;;;;-5.61;84.84;100564.70;1618849;88;21512;-76
2021/12/25 10:31:08;;;;;;;37.63;12.98;;;;;;;-5.57;84.81;100562.79;1618519;88;20949;-75
2021/12/25 10:33:41;;;;;;;38.33;11.55;;;;;;;-5.50;84.87;100565.20;1625682;87;21507;-75
2021/12/25 10:36:12;;;;;;;31.15;9.70;;;;;;;-5.44;84.90;100561.72;1618960;87;21545;-75
2021/12/25 10:38:38;;;;;;;25.88;8.78;;;;;;;-5.39;84.86;100565.31;1588560;90;21414;-76
2021/12/25 10:41:14;;;;;;;21.40;8.45;;;;;;;-5.33;84.92;100569.38;1646957;87;21520;-76
2021/12/25 10:43:42;;;;;;;19.23;7.78;;;;;;;-5.28;84.92;100567.08;1645069;86;20975;-76
2021/12/25 10:46:09;;;;;;;18.73;7.70;;;;;;;-5.21;84.94;100570.34;1645227;86;20954;-77
2021/12/25 10:48:36;;;;;;;16.05;6.80;;;;;;;-5.15;84.96;100564.30;1644735;86;21719;-76
2021/12/25 10:51:02;;;;;;;;;;;;;;;-5.09;84.95;100562.92;1625719;87;20932;-76
2021/12/25 10:53:42;;;;;;;14.00;5.40;;;;;;;-5.03;84.91;100562.34;1617965;87;20103;-76
2021/12/25 10:56:15;;;;;;;16.23;6.03;;;;;;;-4.96;84.96;100553.39;1594828;90;20970;-77
2021/12/25 10:58:43;;;;;;;12.20;5.37;;;;;;;-4.91;84.98;100551.55;1646283;87;21526;-76
2021/12/25 11:01:13;;;;;;;24.30;9.13;;;;;;;-4.87;84.94;100548.77;1651050;85;20943;-76
2021/12/25 11:03:43;;;;;;;29.80;10.93;;;;;;;-4.83;84.94;100564.50;1616379;88;20960;-76
2021/12/25 11:06:18;;;;;;;29.80;10.98;;;;;;;-4.79;84.95;100555.87;1644427;85;21027;-77
2021/12/25 11:08:47;;;;;;;17.95;7.20;;;;;;;-4.74;84.96;100559.47;1645405;86;21694;-77
2021/12/25 11:11:19;;;;;;;19.50;8.33;;;;;;;-4.70;84.92;100562.59;1594727;90;21489;-76
2021/12/25 11:13:51;;;;;;;21.68;7.90;;;;;;;-4.67;84.92;100553.00;1646580;86;20942;-76
2021/12/25 11:16:28;;;;;;;19.70;8.53;;;;;;;-4.63;84.92;100554.00;1597851;88;21563;-76
2021/12/25 11:19:10;;;;;;;19.92;7.90;;;;;;;-4.59;84.95;100554.20;1617491;88;21683;-76
2021/12/25 11:21:49;;;;;;;17.67;7.15;;;;;;;-4.54;84.95;100559.05;1616707;87;21011;-76
2021/12/25 11:24:25;;;;;;;17.60;6.60;;;;;;;-4.49;85.00;100552.54;1648995;85;21585;-76
2021/12/25 11:26:55;;;;;;;15.10;6.28;;;;;;;-4.45;84.95;100566.15;1644130;86;21072;-76
2021/12/25 11:29:25;;;;;;;9.70;5.00;;;;;;;-4.42;84.94;100560.84;1622549;87;20949;-76
2021/12/25 11:31:54;;;;;;;12.98;5.90;;;;;;;-4.49;84.93;100537.80;1628604;87;20941;-77
2021/12/25 11:34:22;;;;;;;10.95;5.28;;;;;;;-4.36;85.02;100558.98;1618849;88;21397;-77
2021/12/25 11:36:52;;;;;;;9.30;5.10;;;;;;;-4.27;85.01;100557.24;1618599;88;20929;-75
2021/12/25 11:39:22;;;;;;;12.93;5.65;;;;;;;-4.27;85.01;100557.24;1619666;87;20969;-76
2021/12/25 11:41:54;;;;;;;14.40;6.08;;;;;;;-4.23;85.02;100557.44;1623377;87;21866;-76
2021/12/25 11:44:44;;;;;;;11.93;5.65;;;;;;;-4.17;84.93;100554.31;1623224;86;21426;-76
2021/12/25 11:47:31;;;;;;;17.55;6.42;;;;;;;-4.17;84.93;100554.31;1594790;90;20993;-76
2021/12/25 11:50:01;;;;;;;12.95;5.78;;;;;;;-4.19;84.94;100554.24;1635635;86;20973;-76
2021/12/25 11:52:33;;;;;;;13.28;5.97;;;;;;;-4.14;84.98;100563.24;1646874;86;20945;-76
2021/12/25 11:55:25;;;;;;;15.53;6.70;;;;;;;-4.13;84.89;100568.36;1650933;85;20949;-76
2021/12/25 11:58:02;;;;;;;22.32;8.45;;;;;;;-4.14;84.83;100565.77;1639650;87;20913;-76
2021/12/25 12:00:39;;;;;;;25.17;9.95;;;;;;;-4.15;84.88;100567.83;1642804;86;21529;-76
2021/12/25 12:03:07;;;;;;;23.18;9.08;;;;;;;-4.16;84.90;100563.17;1651616;86;21718;-76
2021/12/25 12:05:35;;;;;;;23.50;9.35;;;;;;;-4.18;84.85;100562.69;1644133;85;21110;-77
2021/12/25 12:08:12;;;;;;;29.77;10.23;;;;;;;-4.20;84.95;100558.83;1645433;86;20975;-76
2021/12/25 12:10:50;;;;;;;33.30;9.73;;;;;;;-4.20;84.95;100558.83;1645832;86;21014;-76
2021/12/25 12:13:29;;;;;;;20.75;8.30;;;;;;;-4.21;84.78;100554.98;1645179;86;20955;-76
2021/12/25 12:16:03;;;;;;;19.73;7.42;;;;;;;-4.29;84.80;100544.95;1646400;86;20908;-76
2021/12/25 12:18:33;;;;;;;17.55;8.28;;;;;;;-4.26;84.80;100558.57;1645411;86;20959;-76
2021/12/25 12:21:08;;;;;;;33.05;10.63;;;;;;;-4.32;84.70;100557.45;1621425;88;20945;-76
2021/12/25 12:23:51;;;;;;;39.85;14.45;;;;;;;-4.32;84.70;100557.45;1591072;88;21435;-76
2021/12/25 12:26:13;;;;;;;40.58;13.50;;;;;;;-4.36;84.75;100569.94;1591628;88;20891;-77
2021/12/25 12:28:54;;;;;;;41.50;13.60;;;;;;;-4.39;84.78;100569.80;1599559;88;20937;-76
2021/12/25 12:31:40;;;;;;;36.15;12.10;;;;;;;-4.39;84.78;100569.80;1580182;90;20911;-77
2021/12/25 12:34:34;;;;;;;31.77;10.82;;;;;;;-4.41;84.76;100572.66;1594903;90;20946;-76
2021/12/25 12:37:17;;;;;;;26.00;9.65;;;;;;;-4.44;84.78;100583.88;1593290;88;20907;-77
2021/12/25 12:40:06;;;;;;;17.15;8.45;;;;;;;-4.45;84.80;100588.86;1599120;87;21112;-76